Batman Airport
LTCJ : now visible

Airfield :











YOU CAN JOIN US ON...

 
LOGIN :

Register | Disclaimer

   EN    FR    IT 

 









Legend :    VFR   Marginal VFR   IFR   Intensive IFR   Very Intensive IFR
Visi :
Ceiling :
>= 8 km
>= 3000ft
5 to 8 km
1000 to 3000 ft
1500m to 5 km
500 to 1000 ft
800 to 1500m
200 to 500 ft
< 800m
< 200 ft
Symbols :   Thunderstorms  Fog  Heavy snow  Heavy precipitations  Wind > 20 kt






- Airport Elevation : 1822 ft
- IATA code : BAL


LTCJ - Batman

CURRENT METAR :
  • 221650Z 00000KT CAVOK 18/06 Q1019 RMK RWY20 VRB02KT SKC

EXPIRED METARs :
  • 221620Z 25003KT CAVOK 20/05 Q1019
  • 221550Z 25001KT CAVOK 21/05 Q1019 RMK RWY20 18003KT SKC
  • 221520Z 00000KT CAVOK 22/06 Q1019 RMK RWY20 21003KT 130V230 SKC
  • 221450Z 18004KT CAVOK 25/06 Q1019 RMK RWY20 17004KT SKC
  • 221420Z 19004KT CAVOK 26/05 Q1019 RMK RWY20 21005KT SKC

TAF TAF LTCJ
Valid from the 22 at 12:00 until the 23 at 12:00 UTC


221040Z 2212/2312 VRB02KT CAVOK



MET'MAP, your aeronautical weather chart ! - Copyright ORBIFLY December 2007 - Disclaimer

ORBIFLY MET'MAP TEAM :

Programming & Development : Alexandra Zaïnal
Concept & original design : Baudouin d'Aumeries
Assistance for programming : Marc-Olivier Méhu
Technical & hardware support : Manuel Goepfert

Contact : metmap@orbifly.com




SOURCES & CREDITS :

   NOAA       Earth
Advisory